sensor_id;sensor_type;location;lat;lon;timestamp;pressure;altitude;pressure_sealevel;temperature
42119;BMP280;27783;42.782;23.274;2023-07-08T00:00:52;95779.75;;;19.00
42119;BMP280;27783;42.782;23.274;2023-07-08T00:03:19;95781.38;;;18.98
42119;BMP280;27783;42.782;23.274;2023-07-08T00:05:52;95783.63;;;18.99
42119;BMP280;27783;42.782;23.274;2023-07-08T00:08:20;95781.16;;;18.92
42119;BMP280;27783;42.782;23.274;2023-07-08T00:10:46;95780.81;;;18.90
42119;BMP280;27783;42.782;23.274;2023-07-08T00:13:12;95786.16;;;18.90
42119;BMP280;27783;42.782;23.274;2023-07-08T00:15:40;95784.69;;;18.89
42119;BMP280;27783;42.782;23.274;2023-07-08T00:18:17;95780.19;;;18.86
42119;BMP280;27783;42.782;23.274;2023-07-08T00:20:51;95785.84;;;18.88
42119;BMP280;27783;42.782;23.274;2023-07-08T00:23:17;95775.78;;;18.80
42119;BMP280;27783;42.782;23.274;2023-07-08T00:25:49;95777.59;;;18.83
42119;BMP280;27783;42.782;23.274;2023-07-08T00:28:20;95772.91;;;18.75
42119;BMP280;27783;42.782;23.274;2023-07-08T00:30:46;95769.50;;;18.86
42119;BMP280;27783;42.782;23.274;2023-07-08T00:33:19;95771.53;;;18.83
42119;BMP280;27783;42.782;23.274;2023-07-08T00:36:08;95771.75;;;18.76
42119;BMP280;27783;42.782;23.274;2023-07-08T00:38:34;95764.91;;;18.75
42119;BMP280;27783;42.782;23.274;2023-07-08T00:41:08;95761.59;;;18.71
42119;BMP280;27783;42.782;23.274;2023-07-08T00:49:03;95756.53;;;18.61
42119;BMP280;27783;42.782;23.274;2023-07-08T00:51:31;95755.06;;;18.60
42119;BMP280;27783;42.782;23.274;2023-07-08T00:53:56;95747.34;;;18.62
42119;BMP280;27783;42.782;23.274;2023-07-08T00:56:40;95747.97;;;18.41
42119;BMP280;27783;42.782;23.274;2023-07-08T01:01:45;95754.91;;;18.39
42119;BMP280;27783;42.782;23.274;2023-07-08T01:04:32;95761.75;;;18.40
42119;BMP280;27783;42.782;23.274;2023-07-08T01:07:22;95761.47;;;18.22
42119;BMP280;27783;42.782;23.274;2023-07-08T01:09:55;95762.88;;;18.27
42119;BMP280;27783;42.782;23.274;2023-07-08T01:12:29;95761.81;;;18.24
42119;BMP280;27783;42.782;23.274;2023-07-08T01:15:07;95756.66;;;18.18
42119;BMP280;27783;42.782;23.274;2023-07-08T01:17:34;95764.22;;;18.07
42119;BMP280;27783;42.782;23.274;2023-07-08T01:20:21;95760.72;;;18.22
42119;BMP280;27783;42.782;23.274;2023-07-08T01:22:55;95764.84;;;18.11
42119;BMP280;27783;42.782;23.274;2023-07-08T01:25:21;95758.28;;;18.27
42119;BMP280;27783;42.782;23.274;2023-07-08T01:27:52;95755.59;;;18.27
42119;BMP280;27783;42.782;23.274;2023-07-08T01:30:20;95757.84;;;18.17
42119;BMP280;27783;42.782;23.274;2023-07-08T01:32:51;95756.13;;;18.10
42119;BMP280;27783;42.782;23.274;2023-07-08T01:35:34;95753.66;;;18.16
42119;BMP280;27783;42.782;23.274;2023-07-08T01:38:02;95756.06;;;18.26
42119;BMP280;27783;42.782;23.274;2023-07-08T01:40:35;95751.69;;;18.32
42119;BMP280;27783;42.782;23.274;2023-07-08T01:43:04;95749.25;;;18.37
42119;BMP280;27783;42.782;23.274;2023-07-08T01:45:36;95747.94;;;18.29
42119;BMP280;27783;42.782;23.274;2023-07-08T01:48:07;95753.59;;;18.31
42119;BMP280;27783;42.782;23.274;2023-07-08T01:50:36;95765.03;;;18.32
42119;BMP280;27783;42.782;23.274;2023-07-08T01:53:07;95755.84;;;18.33
42119;BMP280;27783;42.782;23.274;2023-07-08T01:55:35;95748.91;;;18.35
42119;BMP280;27783;42.782;23.274;2023-07-08T01:58:02;95741.88;;;18.41
42119;BMP280;27783;42.782;23.274;2023-07-08T02:00:27;95750.28;;;18.27
42119;BMP280;27783;42.782;23.274;2023-07-08T02:02:55;95744.59;;;18.13
42119;BMP280;27783;42.782;23.274;2023-07-08T02:05:30;95757.19;;;18.13
42119;BMP280;27783;42.782;23.274;2023-07-08T02:07:56;95756.16;;;18.22
42119;BMP280;27783;42.782;23.274;2023-07-08T02:10:22;95759.38;;;18.02
42119;BMP280;27783;42.782;23.274;2023-07-08T02:12:48;95763.75;;;17.96
42119;BMP280;27783;42.782;23.274;2023-07-08T02:15:15;95762.69;;;17.94
42119;BMP280;27783;42.782;23.274;2023-07-08T02:17:41;95760.28;;;17.84
42119;BMP280;27783;42.782;23.274;2023-07-08T02:20:08;95758.69;;;18.14
42119;BMP280;27783;42.782;23.274;2023-07-08T02:22:36;95747.97;;;18.02
42119;BMP280;27783;42.782;23.274;2023-07-08T02:25:02;95757.75;;;17.92
42119;BMP280;27783;42.782;23.274;2023-07-08T02:27:27;95762.91;;;17.99
42119;BMP280;27783;42.782;23.274;2023-07-08T02:29:53;95774.06;;;17.94
42119;BMP280;27783;42.782;23.274;2023-07-08T02:32:19;95770.78;;;17.90
42119;BMP280;27783;42.782;23.274;2023-07-08T02:34:46;95777.09;;;17.96
42119;BMP280;27783;42.782;23.274;2023-07-08T02:37:15;95777.59;;;17.91
42119;BMP280;27783;42.782;23.274;2023-07-08T02:39:40;95780.59;;;17.93
42119;BMP280;27783;42.782;23.274;2023-07-08T02:42:06;95785.47;;;17.83
42119;BMP280;27783;42.782;23.274;2023-07-08T02:44:32;95787.88;;;17.77
42119;BMP280;27783;42.782;23.274;2023-07-08T02:46:57;95782.03;;;17.82
42119;BMP280;27783;42.782;23.274;2023-07-08T02:49:24;95793.13;;;17.81
42119;BMP280;27783;42.782;23.274;2023-07-08T02:51:50;95795.81;;;17.81
42119;BMP280;27783;42.782;23.274;2023-07-08T02:54:36;95792.78;;;17.63
42119;BMP280;27783;42.782;23.274;2023-07-08T02:57:03;95797.28;;;17.66
42119;BMP280;27783;42.782;23.274;2023-07-08T02:59:30;95800.25;;;17.99
42119;BMP280;27783;42.782;23.274;2023-07-08T03:01:55;95789.91;;;18.01
42119;BMP280;27783;42.782;23.274;2023-07-08T03:04:22;95793.00;;;18.00
42119;BMP280;27783;42.782;23.274;2023-07-08T03:06:51;95799.69;;;17.92
42119;BMP280;27783;42.782;23.274;2023-07-08T03:09:19;95790.78;;;17.83
42119;BMP280;27783;42.782;23.274;2023-07-08T03:11:44;95795.59;;;17.72
42119;BMP280;27783;42.782;23.274;2023-07-08T03:14:11;95797.63;;;17.84
42119;BMP280;27783;42.782;23.274;2023-07-08T03:16:37;95799.03;;;17.88
42119;BMP280;27783;42.782;23.274;2023-07-08T03:19:03;95796.88;;;17.68
42119;BMP280;27783;42.782;23.274;2023-07-08T03:21:33;95799.63;;;17.64
42119;BMP280;27783;42.782;23.274;2023-07-08T03:24:04;95800.88;;;17.60
42119;BMP280;27783;42.782;23.274;2023-07-08T03:26:31;95799.06;;;17.57
42119;BMP280;27783;42.782;23.274;2023-07-08T03:28:57;95801.63;;;17.60
42119;BMP280;27783;42.782;23.274;2023-07-08T03:31:22;95808.97;;;17.56
42119;BMP280;27783;42.782;23.274;2023-07-08T03:33:51;95803.28;;;17.70
42119;BMP280;27783;42.782;23.274;2023-07-08T03:36:18;95808.72;;;17.67
42119;BMP280;27783;42.782;23.274;2023-07-08T03:38:55;95793.91;;;17.78
42119;BMP280;27783;42.782;23.274;2023-07-08T03:41:21;95806.34;;;17.68
42119;BMP280;27783;42.782;23.274;2023-07-08T03:43:48;95800.53;;;17.73
42119;BMP280;27783;42.782;23.274;2023-07-08T03:46:17;95801.59;;;17.76
42119;BMP280;27783;42.782;23.274;2023-07-08T03:48:45;95795.47;;;17.79
42119;BMP280;27783;42.782;23.274;2023-07-08T03:51:23;95789.09;;;17.88
42119;BMP280;27783;42.782;23.274;2023-07-08T03:53:49;95797.19;;;18.01
42119;BMP280;27783;42.782;23.274;2023-07-08T03:56:14;95785.50;;;17.95
42119;BMP280;27783;42.782;23.274;2023-07-08T03:58:40;95781.56;;;17.99
42119;BMP280;27783;42.782;23.274;2023-07-08T04:01:27;95780.63;;;18.05
42119;BMP280;27783;42.782;23.274;2023-07-08T04:03:54;95785.56;;;18.07
42119;BMP280;27783;42.782;23.274;2023-07-08T04:06:22;95773.59;;;18.11
42119;BMP280;27783;42.782;23.274;2023-07-08T04:08:52;95775.69;;;18.32
42119;BMP280;27783;42.782;23.274;2023-07-08T04:11:21;95781.91;;;18.41
42119;BMP280;27783;42.782;23.274;2023-07-08T04:13:49;95782.28;;;18.27
42119;BMP280;27783;42.782;23.274;2023-07-08T04:16:22;95781.72;;;18.48
42119;BMP280;27783;42.782;23.274;2023-07-08T04:18:48;95785.25;;;18.57
42119;BMP280;27783;42.782;23.274;2023-07-08T04:21:17;95787.03;;;18.75
42119;BMP280;27783;42.782;23.274;2023-07-08T04:23:45;95779.13;;;18.84
42119;BMP280;27783;42.782;23.274;2023-07-08T04:26:11;95778.25;;;18.75
42119;BMP280;27783;42.782;23.274;2023-07-08T04:28:38;95777.94;;;18.85
42119;BMP280;27783;42.782;23.274;2023-07-08T04:31:04;95779.25;;;18.93
42119;BMP280;27783;42.782;23.274;2023-07-08T04:33:31;95785.41;;;19.14
42119;BMP280;27783;42.782;23.274;2023-07-08T04:35:57;95791.22;;;19.13
42119;BMP280;27783;42.782;23.274;2023-07-08T04:38:27;95789.78;;;19.20
42119;BMP280;27783;42.782;23.274;2023-07-08T04:40:54;95789.38;;;19.34
42119;BMP280;27783;42.782;23.274;2023-07-08T04:43:21;95793.53;;;19.35
42119;BMP280;27783;42.782;23.274;2023-07-08T04:45:49;95789.59;;;19.52
42119;BMP280;27783;42.782;23.274;2023-07-08T04:48:17;95780.78;;;19.63
42119;BMP280;27783;42.782;23.274;2023-07-08T04:50:46;95792.63;;;19.62
42119;BMP280;27783;42.782;23.274;2023-07-08T04:53:13;95797.41;;;19.79
42119;BMP280;27783;42.782;23.274;2023-07-08T04:55:47;95802.22;;;19.84
42119;BMP280;27783;42.782;23.274;2023-07-08T04:58:14;95803.69;;;19.97
42119;BMP280;27783;42.782;23.274;2023-07-08T05:00:40;95802.97;;;19.85
42119;BMP280;27783;42.782;23.274;2023-07-08T05:03:06;95800.78;;;19.59
42119;BMP280;27783;42.782;23.274;2023-07-08T05:05:33;95797.69;;;19.60
42119;BMP280;27783;42.782;23.274;2023-07-08T05:07:59;95808.94;;;19.31
42119;BMP280;27783;42.782;23.274;2023-07-08T05:10:25;95805.50;;;19.31
42119;BMP280;27783;42.782;23.274;2023-07-08T05:12:51;95811.88;;;19.82
42119;BMP280;27783;42.782;23.274;2023-07-08T05:15:18;95801.06;;;19.85
42119;BMP280;27783;42.782;23.274;2023-07-08T05:17:44;95799.38;;;20.00
42119;BMP280;27783;42.782;23.274;2023-07-08T05:20:13;95809.78;;;20.19
42119;BMP280;27783;42.782;23.274;2023-07-08T05:22:41;95811.09;;;20.47
42119;BMP280;27783;42.782;23.274;2023-07-08T05:25:10;95802.69;;;20.37
42119;BMP280;27783;42.782;23.274;2023-07-08T05:27:36;95810.78;;;20.45
42119;BMP280;27783;42.782;23.274;2023-07-08T05:30:05;95816.06;;;20.57
42119;BMP280;27783;42.782;23.274;2023-07-08T05:32:31;95822.31;;;20.84
42119;BMP280;27783;42.782;23.274;2023-07-08T05:34:57;95825.81;;;20.93
42119;BMP280;27783;42.782;23.274;2023-07-08T05:37:24;95824.34;;;21.22
42119;BMP280;27783;42.782;23.274;2023-07-08T05:39:52;95815.75;;;21.44
42119;BMP280;27783;42.782;23.274;2023-07-08T05:42:23;95812.81;;;21.51
42119;BMP280;27783;42.782;23.274;2023-07-08T05:44:49;95809.69;;;21.53
42119;BMP280;27783;42.782;23.274;2023-07-08T05:47:18;95821.13;;;21.83
42119;BMP280;27783;42.782;23.274;2023-07-08T05:49:44;95820.72;;;21.63
42119;BMP280;27783;42.782;23.274;2023-07-08T05:52:09;95834.38;;;21.39
42119;BMP280;27783;42.782;23.274;2023-07-08T05:54:40;95831.22;;;21.02
42119;BMP280;27783;42.782;23.274;2023-07-08T05:57:10;95823.16;;;21.23
42119;BMP280;27783;42.782;23.274;2023-07-08T05:59:51;95841.44;;;20.95
42119;BMP280;27783;42.782;23.274;2023-07-08T06:02:18;95843.63;;;21.08
42119;BMP280;27783;42.782;23.274;2023-07-08T06:04:49;95844.50;;;20.85
42119;BMP280;27783;42.782;23.274;2023-07-08T06:07:16;95842.03;;;20.90
42119;BMP280;27783;42.782;23.274;2023-07-08T06:09:42;95838.53;;;20.81
42119;BMP280;27783;42.782;23.274;2023-07-08T06:12:07;95849.13;;;21.05
42119;BMP280;27783;42.782;23.274;2023-07-08T06:14:34;95845.88;;;21.10
42119;BMP280;27783;42.782;23.274;2023-07-08T06:17:00;95849.56;;;21.03
42119;BMP280;27783;42.782;23.274;2023-07-08T06:19:26;95856.09;;;21.03
42119;BMP280;27783;42.782;23.274;2023-07-08T06:21:54;95850.63;;;20.85
42119;BMP280;27783;42.782;23.274;2023-07-08T06:24:19;95853.53;;;20.99
42119;BMP280;27783;42.782;23.274;2023-07-08T06:27:00;95858.22;;;21.07
42119;BMP280;27783;42.782;23.274;2023-07-08T06:29:26;95854.59;;;21.22
42119;BMP280;27783;42.782;23.274;2023-07-08T06:31:53;95864.84;;;21.24
42119;BMP280;27783;42.782;23.274;2023-07-08T06:34:19;95862.56;;;21.14
42119;BMP280;27783;42.782;23.274;2023-07-08T06:36:49;95856.16;;;21.11
42119;BMP280;27783;42.782;23.274;2023-07-08T06:39:27;95869.31;;;21.18
42119;BMP280;27783;42.782;23.274;2023-07-08T06:41:55;95862.34;;;21.00
42119;BMP280;27783;42.782;23.274;2023-07-08T06:44:20;95860.81;;;21.20
42119;BMP280;27783;42.782;23.274;2023-07-08T06:46:46;95859.53;;;21.33
42119;BMP280;27783;42.782;23.274;2023-07-08T06:49:11;95860.13;;;21.66
42119;BMP280;27783;42.782;23.274;2023-07-08T06:51:37;95860.09;;;22.39
42119;BMP280;27783;42.782;23.274;2023-07-08T06:54:03;95854.59;;;22.25
42119;BMP280;27783;42.782;23.274;2023-07-08T06:56:40;95855.31;;;22.26
42119;BMP280;27783;42.782;23.274;2023-07-08T06:59:06;95853.66;;;22.02
42119;BMP280;27783;42.782;23.274;2023-07-08T07:01:32;95856.91;;;21.88
42119;BMP280;27783;42.782;23.274;2023-07-08T07:03:57;95859.06;;;22.28
42119;BMP280;27783;42.782;23.274;2023-07-08T07:06:22;95850.72;;;22.70
42119;BMP280;27783;42.782;23.274;2023-07-08T07:08:49;95855.59;;;22.89
42119;BMP280;27783;42.782;23.274;2023-07-08T07:11:14;95862.81;;;22.57
42119;BMP280;27783;42.782;23.274;2023-07-08T07:13:39;95871.28;;;22.82
42119;BMP280;27783;42.782;23.274;2023-07-08T07:16:05;95864.72;;;22.65
42119;BMP280;27783;42.782;23.274;2023-07-08T07:18:31;95870.38;;;22.32
42119;BMP280;27783;42.782;23.274;2023-07-08T07:20:59;95880.56;;;22.72
42119;BMP280;27783;42.782;23.274;2023-07-08T07:23:24;95870.25;;;23.46
42119;BMP280;27783;42.782;23.274;2023-07-08T07:25:50;95876.00;;;23.22
42119;BMP280;27783;42.782;23.274;2023-07-08T07:28:17;95868.53;;;23.34
42119;BMP280;27783;42.782;23.274;2023-07-08T07:30:43;95878.13;;;23.58
42119;BMP280;27783;42.782;23.274;2023-07-08T07:33:09;95871.59;;;23.82
42119;BMP280;27783;42.782;23.274;2023-07-08T07:35:41;95878.53;;;24.06
42119;BMP280;27783;42.782;23.274;2023-07-08T07:38:06;95880.06;;;24.21
42119;BMP280;27783;42.782;23.274;2023-07-08T07:40:33;95881.78;;;23.78
42119;BMP280;27783;42.782;23.274;2023-07-08T07:43:06;95873.22;;;24.11
42119;BMP280;27783;42.782;23.274;2023-07-08T07:45:32;95876.66;;;24.34
42119;BMP280;27783;42.782;23.274;2023-07-08T07:47:58;95873.38;;;23.93
42119;BMP280;27783;42.782;23.274;2023-07-08T07:50:24;95878.41;;;23.20
42119;BMP280;27783;42.782;23.274;2023-07-08T07:52:49;95883.66;;;23.23
42119;BMP280;27783;42.782;23.274;2023-07-08T07:55:36;95882.28;;;23.19
42119;BMP280;27783;42.782;23.274;2023-07-08T07:58:02;95867.31;;;23.35
42119;BMP280;27783;42.782;23.274;2023-07-08T08:00:28;95887.13;;;22.97
42119;BMP280;27783;42.782;23.274;2023-07-08T08:03:04;95872.75;;;22.91
42119;BMP280;27783;42.782;23.274;2023-07-08T08:05:29;95872.44;;;22.98
42119;BMP280;27783;42.782;23.274;2023-07-08T08:07:56;95873.66;;;22.97
42119;BMP280;27783;42.782;23.274;2023-07-08T08:10:31;95871.66;;;23.64
42119;BMP280;27783;42.782;23.274;2023-07-08T08:13:02;95875.59;;;23.95
42119;BMP280;27783;42.782;23.274;2023-07-08T08:15:27;95868.81;;;24.45
42119;BMP280;27783;42.782;23.274;2023-07-08T08:17:53;95868.63;;;24.71
42119;BMP280;27783;42.782;23.274;2023-07-08T08:20:19;95862.34;;;24.28
42119;BMP280;27783;42.782;23.274;2023-07-08T08:23:00;95861.66;;;24.42
42119;BMP280;27783;42.782;23.274;2023-07-08T08:25:27;95857.47;;;24.78
42119;BMP280;27783;42.782;23.274;2023-07-08T08:27:52;95855.34;;;25.10
42119;BMP280;27783;42.782;23.274;2023-07-08T08:30:19;95851.91;;;24.95
42119;BMP280;27783;42.782;23.274;2023-07-08T08:32:47;95856.84;;;25.11
42119;BMP280;27783;42.782;23.274;2023-07-08T08:35:13;95854.19;;;25.58
42119;BMP280;27783;42.782;23.274;2023-07-08T08:37:41;95863.03;;;25.59
42119;BMP280;27783;42.782;23.274;2023-07-08T08:40:12;95848.63;;;25.06
42119;BMP280;27783;42.782;23.274;2023-07-08T08:42:46;95858.97;;;25.07
42119;BMP280;27783;42.782;23.274;2023-07-08T08:45:19;95856.81;;;24.97
42119;BMP280;27783;42.782;23.274;2023-07-08T08:47:50;95860.47;;;25.08
42119;BMP280;27783;42.782;23.274;2023-07-08T08:50:25;95850.13;;;24.92
42119;BMP280;27783;42.782;23.274;2023-07-08T08:52:52;95844.84;;;24.98
42119;BMP280;27783;42.782;23.274;2023-07-08T08:55:21;95847.66;;;25.31
42119;BMP280;27783;42.782;23.274;2023-07-08T09:00:50;95845.16;;;25.61
42119;BMP280;27783;42.782;23.274;2023-07-08T09:03:59;95840.13;;;25.83
42119;BMP280;27783;42.782;23.274;2023-07-08T09:06:21;95846.88;;;26.90
42119;BMP280;27783;42.782;23.274;2023-07-08T09:08:49;95844.53;;;26.00
42119;BMP280;27783;42.782;23.274;2023-07-08T09:11:51;95846.66;;;25.48
42119;BMP280;27783;42.782;23.274;2023-07-08T09:14:34;95841.41;;;25.25
42119;BMP280;27783;42.782;23.274;2023-07-08T09:20:01;95834.09;;;26.46
42119;BMP280;27783;42.782;23.274;2023-07-08T09:22:46;95843.66;;;26.08
42119;BMP280;27783;42.782;23.274;2023-07-08T09:27:54;95846.16;;;25.78
42119;BMP280;27783;42.782;23.274;2023-07-08T09:30:21;95836.13;;;25.78
42119;BMP280;27783;42.782;23.274;2023-07-08T09:32:48;95836.97;;;25.70
42119;BMP280;27783;42.782;23.274;2023-07-08T09:35:19;95833.97;;;26.21
42119;BMP280;27783;42.782;23.274;2023-07-08T09:37:47;95812.56;;;25.98
42119;BMP280;27783;42.782;23.274;2023-07-08T09:40:20;95813.25;;;26.52
42119;BMP280;27783;42.782;23.274;2023-07-08T09:42:52;95818.06;;;26.42
42119;BMP280;27783;42.782;23.274;2023-07-08T09:45:23;95814.94;;;26.74
42119;BMP280;27783;42.782;23.274;2023-07-08T09:47:53;95815.31;;;26.62
42119;BMP280;27783;42.782;23.274;2023-07-08T09:50:25;95806.66;;;27.02
42119;BMP280;27783;42.782;23.274;2023-07-08T09:52:54;95799.13;;;27.47
42119;BMP280;27783;42.782;23.274;2023-07-08T09:55:23;95804.56;;;26.92
42119;BMP280;27783;42.782;23.274;2023-07-08T09:57:50;95800.88;;;27.20
42119;BMP280;27783;42.782;23.274;2023-07-08T10:00:19;95799.06;;;26.81
42119;BMP280;27783;42.782;23.274;2023-07-08T10:02:54;95800.88;;;27.50
42119;BMP280;27783;42.782;23.274;2023-07-08T10:05:29;95799.34;;;27.43
42119;BMP280;27783;42.782;23.274;2023-07-08T10:07:57;95798.84;;;26.85
42119;BMP280;27783;42.782;23.274;2023-07-08T10:10:30;95790.69;;;27.34
42119;BMP280;27783;42.782;23.274;2023-07-08T10:13:01;95781.56;;;28.08
42119;BMP280;27783;42.782;23.274;2023-07-08T10:15:38;95782.16;;;28.39
42119;BMP280;27783;42.782;23.274;2023-07-08T10:18:10;95780.00;;;27.96
42119;BMP280;27783;42.782;23.274;2023-07-08T10:26:33;95778.03;;;27.92
42119;BMP280;27783;42.782;23.274;2023-07-08T10:31:43;95771.97;;;27.36
42119;BMP280;27783;42.782;23.274;2023-07-08T10:45:13;95754.56;;;27.83
42119;BMP280;27783;42.782;23.274;2023-07-08T11:04:51;95741.59;;;27.98
42119;BMP280;27783;42.782;23.274;2023-07-08T11:10:02;95721.47;;;28.15
42119;BMP280;27783;42.782;23.274;2023-07-08T11:15:33;95724.69;;;28.29
42119;BMP280;27783;42.782;23.274;2023-07-08T11:18:16;95709.19;;;28.30
42119;BMP280;27783;42.782;23.274;2023-07-08T11:21:02;95724.97;;;28.37
42119;BMP280;27783;42.782;23.274;2023-07-08T11:24:00;95713.47;;;27.95
42119;BMP280;27783;42.782;23.274;2023-07-08T11:26:40;95706.81;;;28.69
42119;BMP280;27783;42.782;23.274;2023-07-08T11:29:21;95706.50;;;28.46
42119;BMP280;27783;42.782;23.274;2023-07-08T11:31:47;95699.81;;;29.64
42119;BMP280;27783;42.782;23.274;2023-07-08T11:34:16;95716.63;;;27.89
42119;BMP280;27783;42.782;23.274;2023-07-08T11:36:42;95711.75;;;28.87
42119;BMP280;27783;42.782;23.274;2023-07-08T11:39:33;95711.97;;;28.89
42119;BMP280;27783;42.782;23.274;2023-07-08T11:42:31;95709.25;;;28.94
42119;BMP280;27783;42.782;23.274;2023-07-08T11:44:59;95702.59;;;28.68
42119;BMP280;27783;42.782;23.274;2023-07-08T11:47:34;95706.31;;;29.08
42119;BMP280;27783;42.782;23.274;2023-07-08T11:50:01;95701.63;;;29.35
42119;BMP280;27783;42.782;23.274;2023-07-08T11:52:29;95714.59;;;28.30
42119;BMP280;27783;42.782;23.274;2023-07-08T11:54:59;95704.09;;;28.91
42119;BMP280;27783;42.782;23.274;2023-07-08T11:57:30;95709.25;;;29.21
42119;BMP280;27783;42.782;23.274;2023-07-08T12:00:14;95721.81;;;27.92
42119;BMP280;27783;42.782;23.274;2023-07-08T12:02:49;95712.16;;;27.75
42119;BMP280;27783;42.782;23.274;2023-07-08T12:05:15;95720.06;;;27.43
42119;BMP280;27783;42.782;23.274;2023-07-08T12:07:48;95721.50;;;27.33
42119;BMP280;27783;42.782;23.274;2023-07-08T12:10:28;95725.09;;;27.55
42119;BMP280;27783;42.782;23.274;2023-07-08T12:12:54;95711.50;;;27.50
42119;BMP280;27783;42.782;23.274;2023-07-08T12:15:27;95713.19;;;27.42
42119;BMP280;27783;42.782;23.274;2023-07-08T12:18:02;95713.41;;;27.39
42119;BMP280;27783;42.782;23.274;2023-07-08T12:20:37;95719.28;;;26.72
42119;BMP280;27783;42.782;23.274;2023-07-08T12:23:08;95699.50;;;26.91
42119;BMP280;27783;42.782;23.274;2023-07-08T12:25:35;95709.06;;;27.52
42119;BMP280;27783;42.782;23.274;2023-07-08T12:28:01;95698.97;;;28.09
42119;BMP280;27783;42.782;23.274;2023-07-08T12:30:29;95696.09;;;28.23
42119;BMP280;27783;42.782;23.274;2023-07-08T12:32:55;95696.25;;;28.04
42119;BMP280;27783;42.782;23.274;2023-07-08T12:35:31;95692.69;;;28.65
42119;BMP280;27783;42.782;23.274;2023-07-08T12:37:59;95693.41;;;28.34
42119;BMP280;27783;42.782;23.274;2023-07-08T12:40:27;95690.72;;;28.50
42119;BMP280;27783;42.782;23.274;2023-07-08T12:42:54;95697.00;;;28.09
42119;BMP280;27783;42.782;23.274;2023-07-08T12:45:22;95683.53;;;28.42
42119;BMP280;27783;42.782;23.274;2023-07-08T12:47:48;95684.06;;;28.51
42119;BMP280;27783;42.782;23.274;2023-07-08T12:50:17;95680.41;;;28.86
42119;BMP280;27783;42.782;23.274;2023-07-08T12:52:44;95669.72;;;28.29
42119;BMP280;27783;42.782;23.274;2023-07-08T12:55:10;95679.88;;;28.60
42119;BMP280;27783;42.782;23.274;2023-07-08T12:57:37;95682.28;;;28.21
42119;BMP280;27783;42.782;23.274;2023-07-08T13:00:05;95676.59;;;28.19
42119;BMP280;27783;42.782;23.274;2023-07-08T13:02:35;95686.31;;;28.68
42119;BMP280;27783;42.782;23.274;2023-07-08T13:05:02;95680.66;;;29.04
42119;BMP280;27783;42.782;23.274;2023-07-08T13:07:54;95690.25;;;28.67
42119;BMP280;27783;42.782;23.274;2023-07-08T13:10:23;95698.56;;;28.21
42119;BMP280;27783;42.782;23.274;2023-07-08T13:12:54;95699.78;;;28.26
42119;BMP280;27783;42.782;23.274;2023-07-08T13:15:24;95688.72;;;28.34
42119;BMP280;27783;42.782;23.274;2023-07-08T13:17:53;95687.53;;;28.62
42119;BMP280;27783;42.782;23.274;2023-07-08T13:20:20;95690.28;;;28.73
42119;BMP280;27783;42.782;23.274;2023-07-08T13:22:51;95692.19;;;28.40
42119;BMP280;27783;42.782;23.274;2023-07-08T13:25:18;95690.19;;;28.35
42119;BMP280;27783;42.782;23.274;2023-07-08T13:28:17;95681.09;;;28.59
42119;BMP280;27783;42.782;23.274;2023-07-08T13:30:53;95682.31;;;28.37
42119;BMP280;27783;42.782;23.274;2023-07-08T13:33:19;95680.63;;;28.66
42119;BMP280;27783;42.782;23.274;2023-07-08T13:35:47;95670.50;;;28.67
42119;BMP280;27783;42.782;23.274;2023-07-08T13:38:19;95673.69;;;28.55
42119;BMP280;27783;42.782;23.274;2023-07-08T13:40:49;95679.66;;;28.96
42119;BMP280;27783;42.782;23.274;2023-07-08T13:43:15;95680.13;;;29.10
42119;BMP280;27783;42.782;23.274;2023-07-08T13:45:45;95684.34;;;28.69
42119;BMP280;27783;42.782;23.274;2023-07-08T13:51:15;95684.31;;;28.63
42119;BMP280;27783;42.782;23.274;2023-07-08T13:53:52;95692.53;;;27.96
42119;BMP280;27783;42.782;23.274;2023-07-08T13:56:34;95687.06;;;28.79
42119;BMP280;27783;42.782;23.274;2023-07-08T13:59:08;95674.44;;;28.50
42119;BMP280;27783;42.782;23.274;2023-07-08T14:01:37;95683.78;;;28.38
42119;BMP280;27783;42.782;23.274;2023-07-08T14:04:03;95674.41;;;28.39
42119;BMP280;27783;42.782;23.274;2023-07-08T14:06:32;95685.59;;;28.73
42119;BMP280;27783;42.782;23.274;2023-07-08T14:09:06;95682.88;;;28.73
42119;BMP280;27783;42.782;23.274;2023-07-08T14:11:34;95680.63;;;28.61
42119;BMP280;27783;42.782;23.274;2023-07-08T14:14:00;95690.22;;;28.46
42119;BMP280;27783;42.782;23.274;2023-07-08T14:16:27;95694.91;;;28.56
42119;BMP280;27783;42.782;23.274;2023-07-08T14:18:56;95699.09;;;27.79
42119;BMP280;27783;42.782;23.274;2023-07-08T14:21:22;95698.72;;;28.02
42119;BMP280;27783;42.782;23.274;2023-07-08T14:23:47;95700.34;;;27.78
42119;BMP280;27783;42.782;23.274;2023-07-08T14:26:13;95702.41;;;28.04
42119;BMP280;27783;42.782;23.274;2023-07-08T14:28:38;95694.34;;;28.15
42119;BMP280;27783;42.782;23.274;2023-07-08T14:31:09;95693.66;;;28.36
42119;BMP280;27783;42.782;23.274;2023-07-08T14:33:35;95700.81;;;27.71
42119;BMP280;27783;42.782;23.274;2023-07-08T14:36:01;95694.47;;;27.85
42119;BMP280;27783;42.782;23.274;2023-07-08T14:38:26;95692.75;;;27.82
42119;BMP280;27783;42.782;23.274;2023-07-08T14:40:53;95686.63;;;27.97
42119;BMP280;27783;42.782;23.274;2023-07-08T14:43:32;95695.41;;;27.76
42119;BMP280;27783;42.782;23.274;2023-07-08T14:46:00;95692.97;;;27.84
42119;BMP280;27783;42.782;23.274;2023-07-08T14:48:28;95684.38;;;27.91
42119;BMP280;27783;42.782;23.274;2023-07-08T14:50:54;95677.09;;;28.28
42119;BMP280;27783;42.782;23.274;2023-07-08T14:53:19;95683.88;;;27.92
42119;BMP280;27783;42.782;23.274;2023-07-08T14:55:47;95686.06;;;27.83
42119;BMP280;27783;42.782;23.274;2023-07-08T14:58:29;95688.88;;;28.09
42119;BMP280;27783;42.782;23.274;2023-07-08T15:00:56;95694.94;;;27.42
42119;BMP280;27783;42.782;23.274;2023-07-08T15:03:26;95685.13;;;27.04
42119;BMP280;27783;42.782;23.274;2023-07-08T15:05:51;95696.63;;;26.69
42119;BMP280;27783;42.782;23.274;2023-07-08T15:08:17;95692.78;;;27.06
42119;BMP280;27783;42.782;23.274;2023-07-08T15:10:52;95702.22;;;26.91
42119;BMP280;27783;42.782;23.274;2023-07-08T15:13:20;95703.44;;;26.59